sensor_id;sensor_type;location;lat;lon;timestamp;P1;durP1;ratioP1;P2;durP2;ratioP2
46399;SDS011;32104;50.838;4.388;2022-09-06T00:00:34;1.55;;;1.08;;
46399;SDS011;32104;50.838;4.388;2022-09-06T00:03:00;2.20;;;1.10;;
46399;SDS011;32104;50.838;4.388;2022-09-06T00:05:26;3.15;;;0.85;;
46399;SDS011;32104;50.838;4.388;2022-09-06T00:07:53;1.38;;;0.80;;
46399;SDS011;32104;50.838;4.388;2022-09-06T00:10:18;1.15;;;1.00;;
46399;SDS011;32104;50.838;4.388;2022-09-06T00:12:44;1.00;;;0.80;;
46399;SDS011;32104;50.838;4.388;2022-09-06T00:15:11;1.77;;;1.17;;
46399;SDS011;32104;50.838;4.388;2022-09-06T00:17:37;2.13;;;0.85;;
46399;SDS011;32104;50.838;4.388;2022-09-06T00:20:03;2.75;;;1.00;;
46399;SDS011;32104;50.838;4.388;2022-09-06T00:22:32;1.20;;;0.82;;
46399;SDS011;32104;50.838;4.388;2022-09-06T00:24:58;4.60;;;0.70;;
46399;SDS011;32104;50.838;4.388;2022-09-06T00:27:23;1.55;;;0.90;;
46399;SDS011;32104;50.838;4.388;2022-09-06T00:29:49;1.48;;;0.82;;
46399;SDS011;32104;50.838;4.388;2022-09-06T00:32:16;3.47;;;1.10;;
46399;SDS011;32104;50.838;4.388;2022-09-06T00:34:42;1.13;;;0.85;;
46399;SDS011;32104;50.838;4.388;2022-09-06T00:37:08;2.20;;;0.82;;
46399;SDS011;32104;50.838;4.388;2022-09-06T00:39:33;1.60;;;0.90;;
46399;SDS011;32104;50.838;4.388;2022-09-06T00:41:59;1.38;;;0.80;;
46399;SDS011;32104;50.838;4.388;2022-09-06T00:44:25;1.00;;;0.82;;
46399;SDS011;32104;50.838;4.388;2022-09-06T00:46:51;2.15;;;1.02;;
46399;SDS011;32104;50.838;4.388;2022-09-06T00:49:24;3.50;;;0.80;;
46399;SDS011;32104;50.838;4.388;2022-09-06T00:51:58;1.45;;;1.00;;
46399;SDS011;32104;50.838;4.388;2022-09-06T00:54:29;1.20;;;0.75;;
46399;SDS011;32104;50.838;4.388;2022-09-06T00:56:55;2.10;;;0.80;;
46399;SDS011;32104;50.838;4.388;2022-09-06T00:59:23;1.35;;;0.90;;
46399;SDS011;32104;50.838;4.388;2022-09-06T01:01:51;0.80;;;0.77;;
46399;SDS011;32104;50.838;4.388;2022-09-06T01:04:17;2.75;;;1.02;;
46399;SDS011;32104;50.838;4.388;2022-09-06T01:07:01;1.30;;;0.80;;
46399;SDS011;32104;50.838;4.388;2022-09-06T01:12:40;1.23;;;0.80;;
46399;SDS011;32104;50.838;4.388;2022-09-06T01:24:20;0.85;;;0.77;;
46399;SDS011;32104;50.838;4.388;2022-09-06T01:26:55;3.53;;;0.93;;
46399;SDS011;32104;50.838;4.388;2022-09-06T01:35:41;1.30;;;0.90;;
46399;SDS011;32104;50.838;4.388;2022-09-06T01:38:12;2.85;;;0.95;;
46399;SDS011;32104;50.838;4.388;2022-09-06T01:40:38;1.83;;;0.77;;
46399;SDS011;32104;50.838;4.388;2022-09-06T01:43:05;1.85;;;1.10;;
46399;SDS011;32104;50.838;4.388;2022-09-06T01:48:34;3.47;;;0.93;;
46399;SDS011;32104;50.838;4.388;2022-09-06T02:00:28;2.45;;;0.93;;
46399;SDS011;32104;50.838;4.388;2022-09-06T02:06:21;1.30;;;1.02;;
46399;SDS011;32104;50.838;4.388;2022-09-06T02:09:13;2.55;;;0.98;;
46399;SDS011;32104;50.838;4.388;2022-09-06T02:11:42;2.05;;;1.38;;
46399;SDS011;32104;50.838;4.388;2022-09-06T02:14:17;2.08;;;0.85;;
46399;SDS011;32104;50.838;4.388;2022-09-06T02:16:46;1.27;;;1.00;;
46399;SDS011;32104;50.838;4.388;2022-09-06T02:19:27;3.90;;;1.00;;
46399;SDS011;32104;50.838;4.388;2022-09-06T02:22:17;1.65;;;1.00;;
46399;SDS011;32104;50.838;4.388;2022-09-06T02:24:46;2.03;;;0.90;;
46399;SDS011;32104;50.838;4.388;2022-09-06T02:27:22;1.92;;;0.90;;
46399;SDS011;32104;50.838;4.388;2022-09-06T02:29:50;1.30;;;1.00;;
46399;SDS011;32104;50.838;4.388;2022-09-06T02:32:23;4.95;;;1.00;;
46399;SDS011;32104;50.838;4.388;2022-09-06T02:34:51;1.65;;;1.20;;
46399;SDS011;32104;50.838;4.388;2022-09-06T02:37:19;1.80;;;1.10;;
46399;SDS011;32104;50.838;4.388;2022-09-06T02:39:47;8.10;;;1.17;;
46399;SDS011;32104;50.838;4.388;2022-09-06T02:42:13;1.30;;;1.20;;
46399;SDS011;32104;50.838;4.388;2022-09-06T02:44:41;3.03;;;1.40;;
46399;SDS011;32104;50.838;4.388;2022-09-06T02:47:08;2.55;;;1.35;;
46399;SDS011;32104;50.838;4.388;2022-09-06T02:49:39;5.13;;;1.33;;
46399;SDS011;32104;50.838;4.388;2022-09-06T02:52:05;4.25;;;1.13;;
46399;SDS011;32104;50.838;4.388;2022-09-06T02:54:30;1.40;;;1.30;;
46399;SDS011;32104;50.838;4.388;2022-09-06T02:56:56;1.92;;;1.20;;
46399;SDS011;32104;50.838;4.388;2022-09-06T02:59:22;3.15;;;1.10;;
46399;SDS011;32104;50.838;4.388;2022-09-06T03:01:48;5.32;;;1.40;;
46399;SDS011;32104;50.838;4.388;2022-09-06T03:04:19;2.45;;;1.40;;
46399;SDS011;32104;50.838;4.388;2022-09-06T03:06:45;2.70;;;1.35;;
46399;SDS011;32104;50.838;4.388;2022-09-06T03:09:11;3.55;;;1.38;;
46399;SDS011;32104;50.838;4.388;2022-09-06T03:11:36;2.75;;;1.90;;
46399;SDS011;32104;50.838;4.388;2022-09-06T03:14:02;7.80;;;2.15;;
46399;SDS011;32104;50.838;4.388;2022-09-06T03:16:28;4.97;;;1.33;;
46399;SDS011;32104;50.838;4.388;2022-09-06T03:18:54;3.58;;;1.80;;
46399;SDS011;32104;50.838;4.388;2022-09-06T03:21:20;10.48;;;2.20;;
46399;SDS011;32104;50.838;4.388;2022-09-06T03:23:46;4.90;;;1.58;;
46399;SDS011;32104;50.838;4.388;2022-09-06T03:26:12;6.88;;;2.42;;
46399;SDS011;32104;50.838;4.388;2022-09-06T03:28:40;4.03;;;2.10;;
46399;SDS011;32104;50.838;4.388;2022-09-06T03:31:07;3.13;;;2.17;;
46399;SDS011;32104;50.838;4.388;2022-09-06T03:33:33;4.10;;;1.90;;
46399;SDS011;32104;50.838;4.388;2022-09-06T03:35:59;2.45;;;2.10;;
46399;SDS011;32104;50.838;4.388;2022-09-06T03:38:26;5.00;;;2.50;;
46399;SDS011;32104;50.838;4.388;2022-09-06T03:40:52;5.07;;;1.73;;
46399;SDS011;32104;50.838;4.388;2022-09-06T03:43:20;3.72;;;2.38;;
46399;SDS011;32104;50.838;4.388;2022-09-06T03:45:49;9.32;;;2.85;;
46399;SDS011;32104;50.838;4.388;2022-09-06T03:48:17;5.13;;;2.83;;
46399;SDS011;32104;50.838;4.388;2022-09-06T03:50:50;5.05;;;1.90;;
46399;SDS011;32104;50.838;4.388;2022-09-06T03:53:22;4.13;;;2.67;;
46399;SDS011;32104;50.838;4.388;2022-09-06T03:55:50;3.58;;;1.83;;
46399;SDS011;32104;50.838;4.388;2022-09-06T03:58:17;5.20;;;1.90;;
46399;SDS011;32104;50.838;4.388;2022-09-06T04:00:45;3.83;;;2.25;;
46399;SDS011;32104;50.838;4.388;2022-09-06T04:03:10;4.65;;;2.22;;
46399;SDS011;32104;50.838;4.388;2022-09-06T04:05:38;4.63;;;2.20;;
46399;SDS011;32104;50.838;4.388;2022-09-06T04:08:04;5.00;;;2.33;;
46399;SDS011;32104;50.838;4.388;2022-09-06T04:10:30;3.15;;;1.95;;
46399;SDS011;32104;50.838;4.388;2022-09-06T04:12:56;4.68;;;2.25;;
46399;SDS011;32104;50.838;4.388;2022-09-06T04:15:22;2.97;;;2.03;;
46399;SDS011;32104;50.838;4.388;2022-09-06T04:17:48;4.60;;;1.92;;
46399;SDS011;32104;50.838;4.388;2022-09-06T04:20:16;6.55;;;2.08;;
46399;SDS011;32104;50.838;4.388;2022-09-06T04:22:42;2.55;;;1.88;;
46399;SDS011;32104;50.838;4.388;2022-09-06T04:25:08;4.07;;;2.05;;
46399;SDS011;32104;50.838;4.388;2022-09-06T04:27:35;3.53;;;1.95;;
46399;SDS011;32104;50.838;4.388;2022-09-06T04:30:01;4.10;;;1.88;;
46399;SDS011;32104;50.838;4.388;2022-09-06T04:32:33;6.25;;;1.58;;
46399;SDS011;32104;50.838;4.388;2022-09-06T04:34:59;3.63;;;1.40;;
46399;SDS011;32104;50.838;4.388;2022-09-06T04:37:24;3.65;;;1.85;;
46399;SDS011;32104;50.838;4.388;2022-09-06T04:39:50;9.75;;;2.00;;
46399;SDS011;32104;50.838;4.388;2022-09-06T04:42:16;4.03;;;2.20;;
46399;SDS011;32104;50.838;4.388;2022-09-06T04:44:42;5.03;;;2.00;;
46399;SDS011;32104;50.838;4.388;2022-09-06T04:47:11;4.10;;;2.53;;
46399;SDS011;32104;50.838;4.388;2022-09-06T04:49:39;5.57;;;2.00;;
46399;SDS011;32104;50.838;4.388;2022-09-06T04:52:05;4.70;;;1.92;;
46399;SDS011;32104;50.838;4.388;2022-09-06T04:54:31;7.20;;;2.10;;
46399;SDS011;32104;50.838;4.388;2022-09-06T04:56:57;4.85;;;1.92;;
46399;SDS011;32104;50.838;4.388;2022-09-06T04:59:22;2.38;;;1.85;;
46399;SDS011;32104;50.838;4.388;2022-09-06T05:01:48;3.17;;;1.98;;
46399;SDS011;32104;50.838;4.388;2022-09-06T05:04:14;4.40;;;1.67;;
46399;SDS011;32104;50.838;4.388;2022-09-06T05:06:40;4.18;;;1.92;;
46399;SDS011;32104;50.838;4.388;2022-09-06T05:09:06;4.63;;;1.75;;
46399;SDS011;32104;50.838;4.388;2022-09-06T05:11:33;5.80;;;1.70;;
46399;SDS011;32104;50.838;4.388;2022-09-06T05:13:59;6.68;;;1.83;;
46399;SDS011;32104;50.838;4.388;2022-09-06T05:16:25;3.38;;;1.60;;
46399;SDS011;32104;50.838;4.388;2022-09-06T05:18:50;3.38;;;1.60;;
46399;SDS011;32104;50.838;4.388;2022-09-06T05:21:18;3.95;;;1.48;;
46399;SDS011;32104;50.838;4.388;2022-09-06T05:23:47;5.88;;;1.25;;
46399;SDS011;32104;50.838;4.388;2022-09-06T05:26:13;4.10;;;1.20;;
46399;SDS011;32104;50.838;4.388;2022-09-06T05:28:38;1.95;;;1.20;;
46399;SDS011;32104;50.838;4.388;2022-09-06T05:31:08;2.78;;;1.23;;
46399;SDS011;32104;50.838;4.388;2022-09-06T05:33:47;3.83;;;1.17;;
46399;SDS011;32104;50.838;4.388;2022-09-06T05:36:13;3.75;;;1.40;;
46399;SDS011;32104;50.838;4.388;2022-09-06T05:38:39;5.97;;;2.03;;
46399;SDS011;32104;50.838;4.388;2022-09-06T05:41:05;1.88;;;1.20;;
46399;SDS011;32104;50.838;4.388;2022-09-06T05:43:30;3.30;;;1.00;;
46399;SDS011;32104;50.838;4.388;2022-09-06T05:45:56;3.03;;;1.10;;
46399;SDS011;32104;50.838;4.388;2022-09-06T05:48:22;3.15;;;1.10;;
46399;SDS011;32104;50.838;4.388;2022-09-06T05:50:57;4.57;;;1.10;;
46399;SDS011;32104;50.838;4.388;2022-09-06T05:53:24;5.07;;;1.10;;
46399;SDS011;32104;50.838;4.388;2022-09-06T05:55:50;3.08;;;1.13;;
46399;SDS011;32104;50.838;4.388;2022-09-06T05:58:16;2.28;;;1.00;;
46399;SDS011;32104;50.838;4.388;2022-09-06T06:00:41;1.95;;;0.82;;
46399;SDS011;32104;50.838;4.388;2022-09-06T06:03:16;4.70;;;0.90;;
46399;SDS011;32104;50.838;4.388;2022-09-06T06:05:46;1.98;;;0.90;;
46399;SDS011;32104;50.838;4.388;2022-09-06T06:08:12;4.95;;;1.00;;
46399;SDS011;32104;50.838;4.388;2022-09-06T06:10:41;3.63;;;1.05;;
46399;SDS011;32104;50.838;4.388;2022-09-06T06:13:06;2.92;;;1.13;;
46399;SDS011;32104;50.838;4.388;2022-09-06T06:15:39;4.35;;;1.10;;
46399;SDS011;32104;50.838;4.388;2022-09-06T06:18:08;2.60;;;0.98;;
46399;SDS011;32104;50.838;4.388;2022-09-06T06:23:22;1.27;;;0.80;;
46399;SDS011;32104;50.838;4.388;2022-09-06T06:25:49;2.75;;;0.70;;
46399;SDS011;32104;50.838;4.388;2022-09-06T06:33:20;1.88;;;0.85;;
46399;SDS011;32104;50.838;4.388;2022-09-06T06:38:37;0.98;;;0.80;;
46399;SDS011;32104;50.838;4.388;2022-09-06T06:41:05;2.28;;;0.77;;
46399;SDS011;32104;50.838;4.388;2022-09-06T06:43:32;2.80;;;0.60;;
46399;SDS011;32104;50.838;4.388;2022-09-06T06:46:05;1.20;;;0.82;;
46399;SDS011;32104;50.838;4.388;2022-09-06T06:48:32;0.80;;;0.70;;
46399;SDS011;32104;50.838;4.388;2022-09-06T06:50:58;4.85;;;0.60;;
46399;SDS011;32104;50.838;4.388;2022-09-06T06:53:24;1.45;;;0.70;;
46399;SDS011;32104;50.838;4.388;2022-09-06T06:55:50;3.15;;;0.75;;
46399;SDS011;32104;50.838;4.388;2022-09-06T06:58:18;1.80;;;0.77;;
46399;SDS011;32104;50.838;4.388;2022-09-06T07:00:44;3.53;;;1.08;;
46399;SDS011;32104;50.838;4.388;2022-09-06T07:03:10;1.80;;;0.90;;
46399;SDS011;32104;50.838;4.388;2022-09-06T07:05:37;4.07;;;0.90;;
46399;SDS011;32104;50.838;4.388;2022-09-06T07:08:05;2.38;;;1.00;;
46399;SDS011;32104;50.838;4.388;2022-09-06T07:10:31;4.55;;;0.90;;
46399;SDS011;32104;50.838;4.388;2022-09-06T07:12:58;2.95;;;1.00;;
46399;SDS011;32104;50.838;4.388;2022-09-06T07:15:24;1.50;;;0.80;;
46399;SDS011;32104;50.838;4.388;2022-09-06T07:17:49;2.78;;;0.80;;
46399;SDS011;32104;50.838;4.388;2022-09-06T07:20:17;0.73;;;0.70;;
46399;SDS011;32104;50.838;4.388;2022-09-06T07:22:44;2.45;;;0.63;;
46399;SDS011;32104;50.838;4.388;2022-09-06T07:25:10;2.78;;;0.60;;
46399;SDS011;32104;50.838;4.388;2022-09-06T07:27:38;2.10;;;0.70;;
46399;SDS011;32104;50.838;4.388;2022-09-06T07:30:04;0.77;;;0.45;;
46399;SDS011;32104;50.838;4.388;2022-09-06T07:32:33;0.85;;;0.55;;
46399;SDS011;32104;50.838;4.388;2022-09-06T07:34:59;0.85;;;0.52;;
46399;SDS011;32104;50.838;4.388;2022-09-06T07:37:26;1.92;;;0.63;;
46399;SDS011;32104;50.838;4.388;2022-09-06T07:39:53;2.38;;;0.50;;
46399;SDS011;32104;50.838;4.388;2022-09-06T07:42:19;3.20;;;0.57;;
46399;SDS011;32104;50.838;4.388;2022-09-06T07:44:46;1.63;;;0.60;;
46399;SDS011;32104;50.838;4.388;2022-09-06T07:47:13;4.70;;;0.80;;
46399;SDS011;32104;50.838;4.388;2022-09-06T07:49:42;0.90;;;0.50;;
46399;SDS011;32104;50.838;4.388;2022-09-06T07:52:08;1.92;;;0.60;;
46399;SDS011;32104;50.838;4.388;2022-09-06T07:54:34;1.13;;;0.60;;
46399;SDS011;32104;50.838;4.388;2022-09-06T07:57:02;1.43;;;0.63;;
46399;SDS011;32104;50.838;4.388;2022-09-06T07:59:28;1.10;;;0.63;;
46399;SDS011;32104;50.838;4.388;2022-09-06T08:01:56;2.03;;;0.68;;
46399;SDS011;32104;50.838;4.388;2022-09-06T08:04:27;0.80;;;0.60;;
46399;SDS011;32104;50.838;4.388;2022-09-06T08:06:54;2.20;;;0.50;;
46399;SDS011;32104;50.838;4.388;2022-09-06T08:09:23;1.05;;;0.70;;
46399;SDS011;32104;50.838;4.388;2022-09-06T08:11:50;0.95;;;0.60;;
46399;SDS011;32104;50.838;4.388;2022-09-06T08:16:55;4.03;;;1.20;;
46399;SDS011;32104;50.838;4.388;2022-09-06T08:19:30;3.20;;;0.77;;
46399;SDS011;32104;50.838;4.388;2022-09-06T08:22:05;2.85;;;0.70;;
46399;SDS011;32104;50.838;4.388;2022-09-06T08:24:56;2.00;;;0.70;;
46399;SDS011;32104;50.838;4.388;2022-09-06T08:33:05;1.35;;;0.80;;
46399;SDS011;32104;50.838;4.388;2022-09-06T09:44:25;4.00;;;1.00;;
46399;SDS011;32104;50.838;4.388;2022-09-06T09:47:23;8.20;;;1.40;;
46399;SDS011;32104;50.838;4.388;2022-09-06T10:04:02;4.03;;;1.70;;
46399;SDS011;32104;50.838;4.388;2022-09-06T10:06:36;1.85;;;0.90;;
46399;SDS011;32104;50.838;4.388;2022-09-06T10:12:14;4.47;;;1.05;;
46399;SDS011;32104;50.838;4.388;2022-09-06T10:14:46;2.97;;;0.95;;
46399;SDS011;32104;50.838;4.388;2022-09-06T10:20:02;2.20;;;0.73;;
46399;SDS011;32104;50.838;4.388;2022-09-06T10:26:01;1.88;;;0.70;;
46399;SDS011;32104;50.838;4.388;2022-09-06T10:28:42;3.35;;;0.60;;
46399;SDS011;32104;50.838;4.388;2022-09-06T10:43:04;1.65;;;0.80;;
46399;SDS011;32104;50.838;4.388;2022-09-06T10:48:31;2.05;;;0.38;;
46399;SDS011;32104;50.838;4.388;2022-09-06T10:54:12;1.20;;;0.60;;
46399;SDS011;32104;50.838;4.388;2022-09-06T11:05:19;1.05;;;0.60;;
46399;SDS011;32104;50.838;4.388;2022-09-06T11:07:55;2.25;;;0.50;;
46399;SDS011;32104;50.838;4.388;2022-09-06T11:10:40;1.13;;;0.40;;
46399;SDS011;32104;50.838;4.388;2022-09-06T11:18:53;1.23;;;0.40;;
46399;SDS011;32104;50.838;4.388;2022-09-06T11:27:38;1.58;;;0.50;;
46399;SDS011;32104;50.838;4.388;2022-09-06T11:30:12;2.85;;;0.63;;
46399;SDS011;32104;50.838;4.388;2022-09-06T11:32:49;1.25;;;0.70;;
46399;SDS011;32104;50.838;4.388;2022-09-06T11:35:32;1.98;;;0.47;;
46399;SDS011;32104;50.838;4.388;2022-09-06T11:40:47;2.05;;;0.57;;
46399;SDS011;32104;50.838;4.388;2022-09-06T11:49:30;1.48;;;0.50;;
46399;SDS011;32104;50.838;4.388;2022-09-06T11:52:00;4.30;;;0.52;;
46399;SDS011;32104;50.838;4.388;2022-09-06T11:54:46;0.60;;;0.30;;
46399;SDS011;32104;50.838;4.388;2022-09-06T11:57:20;1.20;;;0.40;;
46399;SDS011;32104;50.838;4.388;2022-09-06T11:59:52;0.73;;;0.40;;
46399;SDS011;32104;50.838;4.388;2022-09-06T12:02:35;3.67;;;0.47;;
46399;SDS011;32104;50.838;4.388;2022-09-06T12:05:07;0.80;;;0.50;;
46399;SDS011;32104;50.838;4.388;2022-09-06T12:07:36;2.67;;;0.52;;
46399;SDS011;32104;50.838;4.388;2022-09-06T12:16:23;2.50;;;0.40;;
46399;SDS011;32104;50.838;4.388;2022-09-06T12:24:05;2.38;;;0.40;;
46399;SDS011;32104;50.838;4.388;2022-09-06T12:26:48;3.33;;;0.32;;
46399;SDS011;32104;50.838;4.388;2022-09-06T12:29:21;1.85;;;0.30;;
46399;SDS011;32104;50.838;4.388;2022-09-06T12:31:52;0.75;;;0.40;;
46399;SDS011;32104;50.838;4.388;2022-09-06T12:34:25;1.00;;;0.38;;
46399;SDS011;32104;50.838;4.388;2022-09-06T12:36:55;0.80;;;0.40;;
46399;SDS011;32104;50.838;4.388;2022-09-06T12:39:24;7.00;;;0.50;;
46399;SDS011;32104;50.838;4.388;2022-09-06T12:42:00;1.52;;;0.40;;
46399;SDS011;32104;50.838;4.388;2022-09-06T12:44:35;3.60;;;0.30;;
46399;SDS011;32104;50.838;4.388;2022-09-06T12:47:09;2.33;;;0.30;;
46399;SDS011;32104;50.838;4.388;2022-09-06T12:50:14;3.25;;;0.40;;
46399;SDS011;32104;50.838;4.388;2022-09-06T12:52:57;1.90;;;0.30;;
46399;SDS011;32104;50.838;4.388;2022-09-06T12:55:29;0.75;;;0.38;;
46399;SDS011;32104;50.838;4.388;2022-09-06T12:57:58;5.03;;;0.85;;
46399;SDS011;32104;50.838;4.388;2022-09-06T13:00:40;3.60;;;0.30;;
46399;SDS011;32104;50.838;4.388;2022-09-06T13:06:11;2.03;;;0.40;;
46399;SDS011;32104;50.838;4.388;2022-09-06T13:08:52;0.90;;;0.40;;
46399;SDS011;32104;50.838;4.388;2022-09-06T13:11:35;0.45;;;0.38;;
46399;SDS011;32104;50.838;4.388;2022-09-06T13:14:15;1.17;;;0.50;;
46399;SDS011;32104;50.838;4.388;2022-09-06T13:16:54;1.27;;;0.40;;
46399;SDS011;32104;50.838;4.388;2022-09-06T13:22:07;1.67;;;0.50;;
46399;SDS011;32104;50.838;4.388;2022-09-06T13:30:03;0.63;;;0.30;;
46399;SDS011;32104;50.838;4.388;2022-09-06T13:32:32;0.25;;;0.25;;
46399;SDS011;32104;50.838;4.388;2022-09-06T13:35:09;3.40;;;0.30;;
46399;SDS011;32104;50.838;4.388;2022-09-06T13:37:46;1.20;;;0.30;;
46399;SDS011;32104;50.838;4.388;2022-09-06T13:43:08;3.78;;;0.35;;
46399;SDS011;32104;50.838;4.388;2022-09-06T13:45:40;0.80;;;0.40;;
46399;SDS011;32104;50.838;4.388;2022-09-06T13:48:06;0.70;;;0.30;;
46399;SDS011;32104;50.838;4.388;2022-09-06T13:50:34;3.45;;;0.50;;
46399;SDS011;32104;50.838;4.388;2022-09-06T13:53:02;3.47;;;0.50;;
46399;SDS011;32104;50.838;4.388;2022-09-06T13:55:29;2.83;;;0.30;;
46399;SDS011;32104;50.838;4.388;2022-09-06T13:57:57;1.38;;;0.30;;
46399;SDS011;32104;50.838;4.388;2022-09-06T14:00:23;8.73;;;0.60;;
46399;SDS011;32104;50.838;4.388;2022-09-06T14:02:53;2.10;;;0.40;;
46399;SDS011;32104;50.838;4.388;2022-09-06T14:05:23;0.57;;;0.30;;
46399;SDS011;32104;50.838;4.388;2022-09-06T14:07:49;0.40;;;0.20;;
46399;SDS011;32104;50.838;4.388;2022-09-06T14:10:16;0.75;;;0.40;;
46399;SDS011;32104;50.838;4.388;2022-09-06T14:12:43;1.50;;;0.30;;
46399;SDS011;32104;50.838;4.388;2022-09-06T14:15:10;0.35;;;0.30;;
46399;SDS011;32104;50.838;4.388;2022-09-06T14:17:37;1.63;;;0.40;;
46399;SDS011;32104;50.838;4.388;2022-09-06T14:22:34;4.43;;;0.30;;
46399;SDS011;32104;50.838;4.388;2022-09-06T14:25:00;0.85;;;0.28;;
46399;SDS011;32104;50.838;4.388;2022-09-06T14:27:26;3.75;;;0.50;;
46399;SDS011;32104;50.838;4.388;2022-09-06T14:29:52;2.47;;;0.50;;
46399;SDS011;32104;50.838;4.388;2022-09-06T14:32:42;1.05;;;0.30;;
46399;SDS011;32104;50.838;4.388;2022-09-06T14:35:11;1.50;;;0.40;;
46399;SDS011;32104;50.838;4.388;2022-09-06T14:37:40;0.75;;;0.65;;
46399;SDS011;32104;50.838;4.388;2022-09-06T14:40:11;2.25;;;0.30;;
46399;SDS011;32104;50.838;4.388;2022-09-06T14:42:37;2.30;;;0.40;;
46399;SDS011;32104;50.838;4.388;2022-09-06T14:45:03;0.20;;;0.20;;
46399;SDS011;32104;50.838;4.388;2022-09-06T14:47:32;0.40;;;0.40;;
46399;SDS011;32104;50.838;4.388;2022-09-06T14:50:01;1.38;;;0.40;;
46399;SDS011;32104;50.838;4.388;2022-09-06T14:52:28;2.05;;;0.38;;
46399;SDS011;32104;50.838;4.388;2022-09-06T14:54:54;1.75;;;0.40;;
46399;SDS011;32104;50.838;4.388;2022-09-06T14:57:21;1.30;;;0.40;;
46399;SDS011;32104;50.838;4.388;2022-09-06T14:59:48;1.52;;;0.32;;
46399;SDS011;32104;50.838;4.388;2022-09-06T15:02:14;2.53;;;0.50;;
46399;SDS011;32104;50.838;4.388;2022-09-06T15:04:42;0.52;;;0.30;;
46399;SDS011;32104;50.838;4.388;2022-09-06T15:07:11;2.10;;;0.60;;
46399;SDS011;32104;50.838;4.388;2022-09-06T15:09:39;7.15;;;0.40;;
46399;SDS011;32104;50.838;4.388;2022-09-06T15:12:05;2.47;;;0.73;;
46399;SDS011;32104;50.838;4.388;2022-09-06T15:14:38;1.27;;;0.40;;
46399;SDS011;32104;50.838;4.388;2022-09-06T15:17:07;0.47;;;0.32;;
46399;SDS011;32104;50.838;4.388;2022-09-06T15:19:34;1.77;;;0.40;;
46399;SDS011;32104;50.838;4.388;2022-09-06T15:22:03;0.95;;;0.40;;
46399;SDS011;32104;50.838;4.388;2022-09-06T15:24:32;0.98;;;0.50;;
46399;SDS011;32104;50.838;4.388;2022-09-06T15:26:59;2.38;;;0.40;;
46399;SDS011;32104;50.838;4.388;2022-09-06T15:29:25;2.17;;;0.40;;
46399;SDS011;32104;50.838;4.388;2022-09-06T15:32:09;1.95;;;0.35;;
46399;SDS011;32104;50.838;4.388;2022-09-06T15:37:01;2.13;;;0.40;;
46399;SDS011;32104;50.838;4.388;2022-09-06T15:39:27;3.13;;;0.80;;
46399;SDS011;32104;50.838;4.388;2022-09-06T15:41:53;1.20;;;0.60;;
46399;SDS011;32104;50.838;4.388;2022-09-06T15:44:21;0.57;;;0.38;;
46399;SDS011;32104;50.838;4.388;2022-09-06T15:46:55;1.13;;;0.70;;
46399;SDS011;32104;50.838;4.388;2022-09-06T15:49:26;1.55;;;0.28;;
46399;SDS011;32104;50.838;4.388;2022-09-06T15:51:58;1.67;;;0.50;;
46399;SDS011;32104;50.838;4.388;2022-09-06T15:54:26;1.23;;;0.28;;
46399;SDS011;32104;50.838;4.388;2022-09-06T15:57:12;0.60;;;0.45;;
46399;SDS011;32104;50.838;4.388;2022-09-06T15:59:40;1.17;;;0.40;;
46399;SDS011;32104;50.838;4.388;2022-09-06T16:02:06;1.25;;;0.38;;
46399;SDS011;32104;50.838;4.388;2022-09-06T16:04:32;1.95;;;0.40;;
46399;SDS011;32104;50.838;4.388;2022-09-06T16:07:07;2.55;;;0.40;;
46399;SDS011;32104;50.838;4.388;2022-09-06T16:12:03;0.95;;;0.40;;
46399;SDS011;32104;50.838;4.388;2022-09-06T16:14:29;1.60;;;0.52;;
46399;SDS011;32104;50.838;4.388;2022-09-06T16:16:58;0.82;;;0.40;;
46399;SDS011;32104;50.838;4.388;2022-09-06T16:19:24;1.55;;;0.50;;
46399;SDS011;32104;50.838;4.388;2022-09-06T16:21:50;2.10;;;0.50;;
46399;SDS011;32104;50.838;4.388;2022-09-06T16:24:16;0.40;;;0.40;;
46399;SDS011;32104;50.838;4.388;2022-09-06T16:26:43;2.00;;;0.60;;
46399;SDS011;32104;50.838;4.388;2022-09-06T16:29:16;1.50;;;0.73;;
46399;SDS011;32104;50.838;4.388;2022-09-06T16:31:43;1.63;;;0.43;;
46399;SDS011;32104;50.838;4.388;2022-09-06T16:34:12;0.40;;;0.40;;
46399;SDS011;32104;50.838;4.388;2022-09-06T16:36:39;1.35;;;0.40;;
46399;SDS011;32104;50.838;4.388;2022-09-06T16:39:05;5.47;;;0.45;;
46399;SDS011;32104;50.838;4.388;2022-09-06T16:44:03;1.70;;;0.40;;
46399;SDS011;32104;50.838;4.388;2022-09-06T16:46:30;2.22;;;0.45;;
46399;SDS011;32104;50.838;4.388;2022-09-06T16:48:57;0.73;;;0.38;;
46399;SDS011;32104;50.838;4.388;2022-09-06T16:51:25;0.50;;;0.40;;
46399;SDS011;32104;50.838;4.388;2022-09-06T16:53:55;0.43;;;0.40;;
46399;SDS011;32104;50.838;4.388;2022-09-06T16:56:23;5.68;;;0.50;;
46399;SDS011;32104;50.838;4.388;2022-09-06T16:59:03;0.43;;;0.40;;
46399;SDS011;32104;50.838;4.388;2022-09-06T17:01:33;1.85;;;0.40;;
46399;SDS011;32104;50.838;4.388;2022-09-06T17:04:06;0.82;;;0.60;;
46399;SDS011;32104;50.838;4.388;2022-09-06T17:06:39;0.98;;;0.60;;
46399;SDS011;32104;50.838;4.388;2022-09-06T17:09:17;4.32;;;0.32;;
46399;SDS011;32104;50.838;4.388;2022-09-06T17:12:19;2.60;;;0.73;;
46399;SDS011;32104;50.838;4.388;2022-09-06T17:15:40;1.52;;;0.65;;
46399;SDS011;32104;50.838;4.388;2022-09-06T17:18:24;1.13;;;0.45;;
46399;SDS011;32104;50.838;4.388;2022-09-06T17:20:56;2.42;;;0.40;;
46399;SDS011;32104;50.838;4.388;2022-09-06T17:23:27;4.47;;;0.52;;
46399;SDS011;32104;50.838;4.388;2022-09-06T17:25:53;3.35;;;0.50;;
46399;SDS011;32104;50.838;4.388;2022-09-06T17:28:26;1.88;;;0.40;;
46399;SDS011;32104;50.838;4.388;2022-09-06T17:31:24;1.00;;;0.30;;
46399;SDS011;32104;50.838;4.388;2022-09-06T17:33:53;1.00;;;0.55;;
46399;SDS011;32104;50.838;4.388;2022-09-06T17:36:20;4.13;;;0.40;;
46399;SDS011;32104;50.838;4.388;2022-09-06T17:38:50;2.47;;;0.30;;
46399;SDS011;32104;50.838;4.388;2022-09-06T17:41:18;1.23;;;0.40;;
46399;SDS011;32104;50.838;4.388;2022-09-06T17:43:48;2.40;;;0.40;;
46399;SDS011;32104;50.838;4.388;2022-09-06T17:46:20;5.10;;;0.38;;
46399;SDS011;32104;50.838;4.388;2022-09-06T17:48:59;0.77;;;0.40;;
46399;SDS011;32104;50.838;4.388;2022-09-06T17:51:31;0.65;;;0.50;;
46399;SDS011;32104;50.838;4.388;2022-09-06T17:54:06;2.20;;;0.55;;
46399;SDS011;32104;50.838;4.388;2022-09-06T17:56:37;3.80;;;0.40;;
46399;SDS011;32104;50.838;4.388;2022-09-06T17:59:06;2.05;;;0.40;;
46399;SDS011;32104;50.838;4.388;2022-09-06T18:01:37;0.82;;;0.30;;
46399;SDS011;32104;50.838;4.388;2022-09-06T18:58:34;1.10;;;0.52;;
46399;SDS011;32104;50.838;4.388;2022-09-06T19:04:48;1.10;;;0.50;;
46399;SDS011;32104;50.838;4.388;2022-09-06T19:07:28;0.68;;;0.55;;
46399;SDS011;32104;50.838;4.388;2022-09-06T19:10:09;2.15;;;0.63;;
46399;SDS011;32104;50.838;4.388;2022-09-06T19:12:35;3.17;;;0.80;;
46399;SDS011;32104;50.838;4.388;2022-09-06T19:15:15;2.50;;;0.52;;
46399;SDS011;32104;50.838;4.388;2022-09-06T19:17:50;0.60;;;0.40;;
46399;SDS011;32104;50.838;4.388;2022-09-06T19:20:20;1.13;;;0.60;;
46399;SDS011;32104;50.838;4.388;2022-09-06T19:22:49;0.82;;;0.57;;
46399;SDS011;32104;50.838;4.388;2022-09-06T19:25:18;3.55;;;0.90;;
46399;SDS011;32104;50.838;4.388;2022-09-06T19:27:52;1.67;;;0.55;;
46399;SDS011;32104;50.838;4.388;2022-09-06T19:30:24;1.75;;;0.50;;
46399;SDS011;32104;50.838;4.388;2022-09-06T19:33:14;2.63;;;0.65;;
46399;SDS011;32104;50.838;4.388;2022-09-06T19:35:53;2.22;;;0.70;;
46399;SDS011;32104;50.838;4.388;2022-09-06T19:41:56;2.22;;;0.60;;
46399;SDS011;32104;50.838;4.388;2022-09-06T19:44:42;0.60;;;0.55;;
46399;SDS011;32104;50.838;4.388;2022-09-06T19:47:30;1.08;;;0.50;;
46399;SDS011;32104;50.838;4.388;2022-09-06T19:50:00;1.13;;;0.60;;
46399;SDS011;32104;50.838;4.388;2022-09-06T19:52:29;3.88;;;0.70;;
46399;SDS011;32104;50.838;4.388;2022-09-06T19:55:21;3.25;;;0.70;;